Archival Weather

Chicago O'Hare International

Chicago, Illinois (KORD)

Report from: Thursday, April 13, 2023 3:51 AM CDT
Current time: Sunday, February 25, 2024 4:23 PM CST

Current weather – Weather history – Daily summaries
Weather forecast

Temperature15.6°C (60.1°F)
Dew point5.0°C (41.0°F)
Winds 6 kts (3.1 m/s, 6.9 mph) South-Southwest (200°)
Visibility10 mi. (16.1 km)
Clouds Sky clear
Altimeter29.88 in.Hg (1012 mB)
Relative humidity49 %
Density altitude259 ft. (79 m)
Sea-level pressure101.2 kPa (1012 mB, 29.87 in.Hg)
Remarks Automated weather observing station with precipitation discriminator
Pressure falling, then rising
Flight conditions Visual Meteorological Conditions
Raw dataKORD 130851Z 20006KT 10SM CLR 16/05 A2988 RMK AO2 SLP115 T01560050 55001
An error has occurred. This application may no longer respond until reloaded. Reload 🗙